sensor_id;sensor_type;location;lat;lon;timestamp;P1;durP1;ratioP1;P2;durP2;ratioP2
39502;SDS011;26970;49.900;10.774;2023-10-19T00:01:14;35.00;;;21.85;;
39502;SDS011;26970;49.900;10.774;2023-10-19T00:03:43;35.03;;;22.55;;
39502;SDS011;26970;49.900;10.774;2023-10-19T00:06:14;32.33;;;20.40;;
39502;SDS011;26970;49.900;10.774;2023-10-19T00:08:43;29.70;;;21.10;;
39502;SDS011;26970;49.900;10.774;2023-10-19T00:11:09;32.50;;;20.70;;
39502;SDS011;26970;49.900;10.774;2023-10-19T00:13:37;33.42;;;21.08;;
39502;SDS011;26970;49.900;10.774;2023-10-19T00:16:04;33.78;;;21.83;;
39502;SDS011;26970;49.900;10.774;2023-10-19T00:18:41;36.03;;;22.02;;
39502;SDS011;26970;49.900;10.774;2023-10-19T00:21:13;33.63;;;22.00;;
39502;SDS011;26970;49.900;10.774;2023-10-19T00:23:53;37.45;;;23.10;;
39502;SDS011;26970;49.900;10.774;2023-10-19T00:26:21;36.80;;;22.35;;
39502;SDS011;26970;49.900;10.774;2023-10-19T00:28:50;32.47;;;20.83;;
39502;SDS011;26970;49.900;10.774;2023-10-19T00:31:21;34.65;;;22.35;;
39502;SDS011;26970;49.900;10.774;2023-10-19T00:33:52;35.40;;;21.10;;
39502;SDS011;26970;49.900;10.774;2023-10-19T00:36:19;35.78;;;21.48;;
39502;SDS011;26970;49.900;10.774;2023-10-19T00:38:46;44.22;;;22.95;;
39502;SDS011;26970;49.900;10.774;2023-10-19T00:41:15;36.05;;;21.55;;
39502;SDS011;26970;49.900;10.774;2023-10-19T00:43:47;32.85;;;20.67;;
39502;SDS011;26970;49.900;10.774;2023-10-19T00:46:22;34.78;;;21.92;;
39502;SDS011;26970;49.900;10.774;2023-10-19T00:48:55;32.70;;;21.10;;
39502;SDS011;26970;49.900;10.774;2023-10-19T00:51:26;35.53;;;22.15;;
39502;SDS011;26970;49.900;10.774;2023-10-19T00:54:01;33.67;;;22.38;;
39502;SDS011;26970;49.900;10.774;2023-10-19T00:59:11;34.53;;;21.50;;
39502;SDS011;26970;49.900;10.774;2023-10-19T01:01:44;32.13;;;21.80;;
39502;SDS011;26970;49.900;10.774;2023-10-19T01:04:13;36.20;;;23.80;;
39502;SDS011;26970;49.900;10.774;2023-10-19T01:06:41;35.30;;;22.90;;
39502;SDS011;26970;49.900;10.774;2023-10-19T01:09:23;38.50;;;23.60;;
39502;SDS011;26970;49.900;10.774;2023-10-19T01:11:52;35.30;;;22.27;;
39502;SDS011;26970;49.900;10.774;2023-10-19T01:14:21;42.83;;;24.65;;
39502;SDS011;26970;49.900;10.774;2023-10-19T01:16:48;36.70;;;23.85;;
39502;SDS011;26970;49.900;10.774;2023-10-19T01:19:21;34.58;;;21.90;;
39502;SDS011;26970;49.900;10.774;2023-10-19T01:21:52;39.88;;;24.25;;
39502;SDS011;26970;49.900;10.774;2023-10-19T01:24:23;34.97;;;22.05;;
39502;SDS011;26970;49.900;10.774;2023-10-19T01:27:07;36.22;;;22.25;;
39502;SDS011;26970;49.900;10.774;2023-10-19T01:29:36;34.80;;;22.30;;
39502;SDS011;26970;49.900;10.774;2023-10-19T01:32:06;37.83;;;24.05;;
39502;SDS011;26970;49.900;10.774;2023-10-19T01:34:36;41.90;;;24.10;;
39502;SDS011;26970;49.900;10.774;2023-10-19T01:37:02;35.13;;;22.60;;
39502;SDS011;26970;49.900;10.774;2023-10-19T01:39:32;36.17;;;23.15;;
39502;SDS011;26970;49.900;10.774;2023-10-19T01:42:02;34.63;;;22.92;;
39502;SDS011;26970;49.900;10.774;2023-10-19T01:44:29;34.78;;;23.60;;
39502;SDS011;26970;49.900;10.774;2023-10-19T01:46:55;34.20;;;23.83;;
39502;SDS011;26970;49.900;10.774;2023-10-19T01:49:21;36.00;;;23.77;;
39502;SDS011;26970;49.900;10.774;2023-10-19T01:51:53;36.03;;;23.55;;
39502;SDS011;26970;49.900;10.774;2023-10-19T01:54:20;39.38;;;25.90;;
39502;SDS011;26970;49.900;10.774;2023-10-19T01:56:50;40.10;;;26.65;;
39502;SDS011;26970;49.900;10.774;2023-10-19T01:59:24;44.67;;;27.25;;
39502;SDS011;26970;49.900;10.774;2023-10-19T02:01:54;40.85;;;26.90;;
39502;SDS011;26970;49.900;10.774;2023-10-19T02:04:21;44.28;;;26.38;;
39502;SDS011;26970;49.900;10.774;2023-10-19T02:06:46;46.13;;;28.27;;
39502;SDS011;26970;49.900;10.774;2023-10-19T02:09:14;43.78;;;27.50;;
39502;SDS011;26970;49.900;10.774;2023-10-19T02:11:46;40.92;;;27.77;;
39502;SDS011;26970;49.900;10.774;2023-10-19T02:14:16;41.47;;;27.40;;
39502;SDS011;26970;49.900;10.774;2023-10-19T02:16:46;41.17;;;26.77;;
39502;SDS011;26970;49.900;10.774;2023-10-19T02:19:16;44.03;;;28.10;;
39502;SDS011;26970;49.900;10.774;2023-10-19T02:21:42;40.60;;;26.73;;
39502;SDS011;26970;49.900;10.774;2023-10-19T02:24:09;41.75;;;25.48;;
39502;SDS011;26970;49.900;10.774;2023-10-19T02:26:39;43.17;;;27.13;;
39502;SDS011;26970;49.900;10.774;2023-10-19T02:29:05;40.35;;;24.25;;
39502;SDS011;26970;49.900;10.774;2023-10-19T02:31:35;42.50;;;27.50;;
39502;SDS011;26970;49.900;10.774;2023-10-19T02:34:05;39.22;;;24.17;;
39502;SDS011;26970;49.900;10.774;2023-10-19T02:36:35;40.53;;;26.58;;
39502;SDS011;26970;49.900;10.774;2023-10-19T02:39:06;44.38;;;27.08;;
39502;SDS011;26970;49.900;10.774;2023-10-19T02:41:37;42.78;;;28.17;;
39502;SDS011;26970;49.900;10.774;2023-10-19T02:44:04;48.90;;;29.30;;
39502;SDS011;26970;49.900;10.774;2023-10-19T02:46:54;48.13;;;30.15;;
39502;SDS011;26970;49.900;10.774;2023-10-19T02:49:33;42.22;;;28.13;;
39502;SDS011;26970;49.900;10.774;2023-10-19T02:52:03;46.65;;;29.42;;
39502;SDS011;26970;49.900;10.774;2023-10-19T02:54:29;48.00;;;28.50;;
39502;SDS011;26970;49.900;10.774;2023-10-19T02:56:58;49.33;;;30.45;;
39502;SDS011;26970;49.900;10.774;2023-10-19T02:59:24;45.15;;;28.92;;
39502;SDS011;26970;49.900;10.774;2023-10-19T03:01:57;53.40;;;31.23;;
39502;SDS011;26970;49.900;10.774;2023-10-19T03:04:33;50.38;;;31.40;;
39502;SDS011;26970;49.900;10.774;2023-10-19T03:07:02;48.72;;;31.17;;
39502;SDS011;26970;49.900;10.774;2023-10-19T03:09:29;51.00;;;31.83;;
39502;SDS011;26970;49.900;10.774;2023-10-19T03:11:55;50.35;;;30.33;;
39502;SDS011;26970;49.900;10.774;2023-10-19T03:14:28;55.45;;;32.40;;
39502;SDS011;26970;49.900;10.774;2023-10-19T03:16:53;52.53;;;32.90;;
39502;SDS011;26970;49.900;10.774;2023-10-19T03:19:22;54.33;;;31.83;;
39502;SDS011;26970;49.900;10.774;2023-10-19T03:21:49;53.95;;;32.70;;
39502;SDS011;26970;49.900;10.774;2023-10-19T03:24:16;56.20;;;31.30;;
39502;SDS011;26970;49.900;10.774;2023-10-19T03:27:04;58.22;;;33.42;;
39502;SDS011;26970;49.900;10.774;2023-10-19T03:29:49;58.58;;;30.98;;
39502;SDS011;26970;49.900;10.774;2023-10-19T03:32:20;50.30;;;31.20;;
39502;SDS011;26970;49.900;10.774;2023-10-19T03:34:47;53.25;;;31.50;;
39502;SDS011;26970;49.900;10.774;2023-10-19T03:37:14;50.90;;;31.42;;
39502;SDS011;26970;49.900;10.774;2023-10-19T03:39:42;50.83;;;31.23;;
39502;SDS011;26970;49.900;10.774;2023-10-19T03:42:10;50.65;;;31.92;;
39502;SDS011;26970;49.900;10.774;2023-10-19T03:44:39;50.95;;;32.50;;
39502;SDS011;26970;49.900;10.774;2023-10-19T03:47:25;51.67;;;32.08;;
39502;SDS011;26970;49.900;10.774;2023-10-19T03:49:52;50.25;;;31.98;;
39502;SDS011;26970;49.900;10.774;2023-10-19T03:52:18;45.47;;;28.10;;
39502;SDS011;26970;49.900;10.774;2023-10-19T03:54:44;51.70;;;31.77;;
39502;SDS011;26970;49.900;10.774;2023-10-19T03:57:12;51.95;;;30.50;;
39502;SDS011;26970;49.900;10.774;2023-10-19T03:59:44;47.67;;;30.92;;
39502;SDS011;26970;49.900;10.774;2023-10-19T04:02:12;51.35;;;29.73;;
39502;SDS011;26970;49.900;10.774;2023-10-19T04:04:46;49.67;;;29.90;;
39502;SDS011;26970;49.900;10.774;2023-10-19T04:07:17;42.08;;;27.55;;
39502;SDS011;26970;49.900;10.774;2023-10-19T04:09:43;44.65;;;28.98;;
39502;SDS011;26970;49.900;10.774;2023-10-19T04:12:27;45.80;;;29.60;;
39502;SDS011;26970;49.900;10.774;2023-10-19T04:14:56;44.63;;;28.75;;
39502;SDS011;26970;49.900;10.774;2023-10-19T04:17:22;47.15;;;28.65;;
39502;SDS011;26970;49.900;10.774;2023-10-19T04:19:49;46.13;;;28.77;;
39502;SDS011;26970;49.900;10.774;2023-10-19T04:22:19;48.08;;;30.85;;
39502;SDS011;26970;49.900;10.774;2023-10-19T04:24:51;44.45;;;29.13;;
39502;SDS011;26970;49.900;10.774;2023-10-19T04:27:17;53.35;;;32.33;;
39502;SDS011;26970;49.900;10.774;2023-10-19T04:29:46;45.63;;;29.27;;
39502;SDS011;26970;49.900;10.774;2023-10-19T04:32:14;51.22;;;31.98;;
39502;SDS011;26970;49.900;10.774;2023-10-19T04:34:43;56.50;;;35.17;;
39502;SDS011;26970;49.900;10.774;2023-10-19T04:37:09;61.67;;;37.30;;
39502;SDS011;26970;49.900;10.774;2023-10-19T04:39:37;71.40;;;39.28;;
39502;SDS011;26970;49.900;10.774;2023-10-19T04:42:03;101.53;;;55.40;;
39502;SDS011;26970;49.900;10.774;2023-10-19T04:44:29;68.50;;;40.03;;
39502;SDS011;26970;49.900;10.774;2023-10-19T04:46:55;70.40;;;40.55;;
39502;SDS011;26970;49.900;10.774;2023-10-19T04:49:22;73.60;;;40.50;;
39502;SDS011;26970;49.900;10.774;2023-10-19T04:51:47;62.88;;;38.85;;
39502;SDS011;26970;49.900;10.774;2023-10-19T04:54:13;61.55;;;37.63;;
39502;SDS011;26970;49.900;10.774;2023-10-19T04:56:39;68.30;;;40.25;;
39502;SDS011;26970;49.900;10.774;2023-10-19T04:59:04;77.53;;;44.38;;
39502;SDS011;26970;49.900;10.774;2023-10-19T05:01:31;67.70;;;42.55;;
39502;SDS011;26970;49.900;10.774;2023-10-19T05:03:58;63.40;;;38.22;;
39502;SDS011;26970;49.900;10.774;2023-10-19T05:06:24;58.25;;;38.63;;
39502;SDS011;26970;49.900;10.774;2023-10-19T05:08:50;64.00;;;41.13;;
39502;SDS011;26970;49.900;10.774;2023-10-19T05:11:17;68.07;;;44.38;;
39502;SDS011;26970;49.900;10.774;2023-10-19T05:13:43;69.15;;;45.75;;
39502;SDS011;26970;49.900;10.774;2023-10-19T05:16:08;70.20;;;43.03;;
39502;SDS011;26970;49.900;10.774;2023-10-19T05:18:34;60.22;;;39.13;;
39502;SDS011;26970;49.900;10.774;2023-10-19T05:21:00;55.60;;;36.05;;
39502;SDS011;26970;49.900;10.774;2023-10-19T05:23:26;61.83;;;36.85;;
39502;SDS011;26970;49.900;10.774;2023-10-19T05:25:53;61.33;;;36.88;;
39502;SDS011;26970;49.900;10.774;2023-10-19T05:28:24;57.25;;;36.13;;
39502;SDS011;26970;49.900;10.774;2023-10-19T05:30:50;58.72;;;36.05;;
39502;SDS011;26970;49.900;10.774;2023-10-19T05:33:16;63.72;;;37.30;;
39502;SDS011;26970;49.900;10.774;2023-10-19T05:35:45;59.53;;;37.67;;
39502;SDS011;26970;49.900;10.774;2023-10-19T05:38:15;55.05;;;34.55;;
39502;SDS011;26970;49.900;10.774;2023-10-19T05:40:42;55.65;;;36.90;;
39502;SDS011;26970;49.900;10.774;2023-10-19T05:43:11;59.58;;;39.33;;
39502;SDS011;26970;49.900;10.774;2023-10-19T05:45:38;65.03;;;39.53;;
39502;SDS011;26970;49.900;10.774;2023-10-19T05:48:04;61.42;;;37.13;;
39502;SDS011;26970;49.900;10.774;2023-10-19T05:50:31;64.97;;;39.45;;
39502;SDS011;26970;49.900;10.774;2023-10-19T05:52:58;60.40;;;36.70;;
39502;SDS011;26970;49.900;10.774;2023-10-19T05:55:24;62.60;;;38.15;;
39502;SDS011;26970;49.900;10.774;2023-10-19T05:57:50;64.30;;;37.10;;
39502;SDS011;26970;49.900;10.774;2023-10-19T06:00:16;64.28;;;38.00;;
39502;SDS011;26970;49.900;10.774;2023-10-19T06:02:43;64.13;;;36.25;;
39502;SDS011;26970;49.900;10.774;2023-10-19T06:05:10;65.13;;;38.60;;
39502;SDS011;26970;49.900;10.774;2023-10-19T06:07:37;67.57;;;38.72;;
39502;SDS011;26970;49.900;10.774;2023-10-19T06:10:03;63.15;;;37.42;;
39502;SDS011;26970;49.900;10.774;2023-10-19T06:12:32;60.63;;;35.60;;
39502;SDS011;26970;49.900;10.774;2023-10-19T06:14:59;65.43;;;38.30;;
39502;SDS011;26970;49.900;10.774;2023-10-19T06:17:26;65.72;;;39.03;;
39502;SDS011;26970;49.900;10.774;2023-10-19T06:19:53;62.40;;;37.55;;
39502;SDS011;26970;49.900;10.774;2023-10-19T06:22:19;61.20;;;37.25;;
39502;SDS011;26970;49.900;10.774;2023-10-19T06:24:45;68.70;;;38.90;;
39502;SDS011;26970;49.900;10.774;2023-10-19T06:27:10;71.22;;;40.08;;
39502;SDS011;26970;49.900;10.774;2023-10-19T06:29:36;63.88;;;38.38;;
39502;SDS011;26970;49.900;10.774;2023-10-19T06:32:01;61.95;;;37.17;;
39502;SDS011;26970;49.900;10.774;2023-10-19T06:34:27;64.97;;;37.05;;
39502;SDS011;26970;49.900;10.774;2023-10-19T06:36:53;71.80;;;40.40;;
39502;SDS011;26970;49.900;10.774;2023-10-19T06:39:19;66.57;;;38.28;;
39502;SDS011;26970;49.900;10.774;2023-10-19T06:41:48;62.33;;;37.53;;
39502;SDS011;26970;49.900;10.774;2023-10-19T06:44:14;66.47;;;37.85;;
39502;SDS011;26970;49.900;10.774;2023-10-19T06:46:42;63.17;;;36.72;;
39502;SDS011;26970;49.900;10.774;2023-10-19T06:49:08;59.03;;;37.65;;
39502;SDS011;26970;49.900;10.774;2023-10-19T06:51:34;67.10;;;38.38;;
39502;SDS011;26970;49.900;10.774;2023-10-19T06:54:01;64.32;;;37.83;;
39502;SDS011;26970;49.900;10.774;2023-10-19T06:56:27;62.63;;;36.50;;
39502;SDS011;26970;49.900;10.774;2023-10-19T06:58:53;65.40;;;37.45;;
39502;SDS011;26970;49.900;10.774;2023-10-19T07:01:18;65.53;;;39.53;;
39502;SDS011;26970;49.900;10.774;2023-10-19T07:03:48;72.60;;;39.53;;
39502;SDS011;26970;49.900;10.774;2023-10-19T07:06:18;67.03;;;38.92;;
39502;SDS011;26970;49.900;10.774;2023-10-19T07:08:44;72.25;;;38.03;;
39502;SDS011;26970;49.900;10.774;2023-10-19T07:11:10;73.72;;;40.58;;
39502;SDS011;26970;49.900;10.774;2023-10-19T07:13:35;66.95;;;40.20;;
39502;SDS011;26970;49.900;10.774;2023-10-19T07:16:01;71.30;;;40.13;;
39502;SDS011;26970;49.900;10.774;2023-10-19T07:18:28;66.78;;;36.05;;
39502;SDS011;26970;49.900;10.774;2023-10-19T07:20:54;70.65;;;41.63;;
39502;SDS011;26970;49.900;10.774;2023-10-19T07:23:27;67.70;;;37.47;;
39502;SDS011;26970;49.900;10.774;2023-10-19T07:25:53;68.80;;;41.08;;
39502;SDS011;26970;49.900;10.774;2023-10-19T07:28:21;67.35;;;40.60;;
39502;SDS011;26970;49.900;10.774;2023-10-19T07:30:47;71.90;;;42.00;;
39502;SDS011;26970;49.900;10.774;2023-10-19T07:33:14;77.65;;;43.45;;
39502;SDS011;26970;49.900;10.774;2023-10-19T07:35:43;70.35;;;43.88;;
39502;SDS011;26970;49.900;10.774;2023-10-19T07:38:12;69.85;;;43.08;;
39502;SDS011;26970;49.900;10.774;2023-10-19T07:40:38;70.63;;;42.45;;
39502;SDS011;26970;49.900;10.774;2023-10-19T07:43:04;70.70;;;42.90;;
39502;SDS011;26970;49.900;10.774;2023-10-19T07:45:30;70.47;;;41.28;;
39502;SDS011;26970;49.900;10.774;2023-10-19T07:47:57;62.40;;;38.78;;
39502;SDS011;26970;49.900;10.774;2023-10-19T07:50:23;61.70;;;37.67;;
39502;SDS011;26970;49.900;10.774;2023-10-19T07:52:51;60.00;;;39.65;;
39502;SDS011;26970;49.900;10.774;2023-10-19T07:55:19;55.80;;;36.70;;
39502;SDS011;26970;49.900;10.774;2023-10-19T07:57:48;57.60;;;36.78;;
39502;SDS011;26970;49.900;10.774;2023-10-19T08:00:15;63.08;;;36.53;;
39502;SDS011;26970;49.900;10.774;2023-10-19T08:02:42;56.25;;;37.92;;
39502;SDS011;26970;49.900;10.774;2023-10-19T08:05:12;56.05;;;33.78;;
39502;SDS011;26970;49.900;10.774;2023-10-19T08:07:39;55.72;;;37.65;;
39502;SDS011;26970;49.900;10.774;2023-10-19T08:10:11;54.33;;;36.20;;
39502;SDS011;26970;49.900;10.774;2023-10-19T08:12:37;54.00;;;35.80;;
39502;SDS011;26970;49.900;10.774;2023-10-19T08:15:06;57.70;;;38.45;;
39502;SDS011;26970;49.900;10.774;2023-10-19T08:17:33;61.72;;;38.15;;
39502;SDS011;26970;49.900;10.774;2023-10-19T08:19:59;58.83;;;37.13;;
39502;SDS011;26970;49.900;10.774;2023-10-19T08:22:28;61.25;;;38.13;;
39502;SDS011;26970;49.900;10.774;2023-10-19T08:24:55;58.17;;;38.50;;
39502;SDS011;26970;49.900;10.774;2023-10-19T08:27:21;52.50;;;36.08;;
39502;SDS011;26970;49.900;10.774;2023-10-19T08:29:49;46.85;;;33.78;;
39502;SDS011;26970;49.900;10.774;2023-10-19T08:32:15;45.13;;;33.58;;
39502;SDS011;26970;49.900;10.774;2023-10-19T08:34:41;54.28;;;34.20;;
39502;SDS011;26970;49.900;10.774;2023-10-19T08:37:07;50.10;;;34.38;;
39502;SDS011;26970;49.900;10.774;2023-10-19T08:39:32;51.25;;;34.42;;
39502;SDS011;26970;49.900;10.774;2023-10-19T08:42:04;45.08;;;32.88;;
39502;SDS011;26970;49.900;10.774;2023-10-19T08:44:31;47.58;;;32.80;;
39502;SDS011;26970;49.900;10.774;2023-10-19T08:46:57;44.35;;;31.60;;
39502;SDS011;26970;49.900;10.774;2023-10-19T08:49:24;44.17;;;30.08;;
39502;SDS011;26970;49.900;10.774;2023-10-19T08:51:53;42.20;;;29.55;;
39502;SDS011;26970;49.900;10.774;2023-10-19T08:54:19;36.53;;;27.38;;
39502;SDS011;26970;49.900;10.774;2023-10-19T08:56:45;41.13;;;29.48;;
39502;SDS011;26970;49.900;10.774;2023-10-19T08:59:13;39.42;;;28.67;;
39502;SDS011;26970;49.900;10.774;2023-10-19T09:01:42;40.63;;;29.90;;
39502;SDS011;26970;49.900;10.774;2023-10-19T09:04:11;41.55;;;29.27;;
39502;SDS011;26970;49.900;10.774;2023-10-19T09:06:38;43.00;;;31.73;;
39502;SDS011;26970;49.900;10.774;2023-10-19T09:09:09;39.80;;;29.27;;
39502;SDS011;26970;49.900;10.774;2023-10-19T09:11:44;41.10;;;28.13;;
39502;SDS011;26970;49.900;10.774;2023-10-19T09:14:11;39.40;;;28.55;;
39502;SDS011;26970;49.900;10.774;2023-10-19T09:16:55;41.88;;;29.05;;
39502;SDS011;26970;49.900;10.774;2023-10-19T09:19:40;38.22;;;28.10;;
39502;SDS011;26970;49.900;10.774;2023-10-19T09:22:07;40.42;;;28.33;;
39502;SDS011;26970;49.900;10.774;2023-10-19T09:24:41;42.58;;;28.33;;
39502;SDS011;26970;49.900;10.774;2023-10-19T09:27:08;38.08;;;28.98;;
39502;SDS011;26970;49.900;10.774;2023-10-19T09:29:33;43.00;;;30.10;;
39502;SDS011;26970;49.900;10.774;2023-10-19T09:31:59;46.55;;;30.73;;
39502;SDS011;26970;49.900;10.774;2023-10-19T09:34:29;45.70;;;30.70;;
39502;SDS011;26970;49.900;10.774;2023-10-19T09:37:01;46.22;;;30.52;;
39502;SDS011;26970;49.900;10.774;2023-10-19T09:39:28;38.80;;;27.83;;
39502;SDS011;26970;49.900;10.774;2023-10-19T09:42:07;36.97;;;26.67;;
39502;SDS011;26970;49.900;10.774;2023-10-19T09:44:42;38.67;;;28.30;;
39502;SDS011;26970;49.900;10.774;2023-10-19T09:47:11;40.00;;;26.63;;
39502;SDS011;26970;49.900;10.774;2023-10-19T09:49:41;41.42;;;27.10;;
39502;SDS011;26970;49.900;10.774;2023-10-19T09:52:10;41.70;;;30.05;;
39502;SDS011;26970;49.900;10.774;2023-10-19T09:57:14;39.40;;;27.30;;
39502;SDS011;26970;49.900;10.774;2023-10-19T09:59:45;40.78;;;27.35;;
39502;SDS011;26970;49.900;10.774;2023-10-19T10:02:15;41.63;;;27.73;;
39502;SDS011;26970;49.900;10.774;2023-10-19T10:04:43;40.65;;;26.90;;
39502;SDS011;26970;49.900;10.774;2023-10-19T10:07:10;40.75;;;24.80;;
39502;SDS011;26970;49.900;10.774;2023-10-19T10:09:40;34.72;;;25.30;;
39502;SDS011;26970;49.900;10.774;2023-10-19T10:12:15;35.05;;;25.05;;
39502;SDS011;26970;49.900;10.774;2023-10-19T10:15:02;33.65;;;24.70;;
39502;SDS011;26970;49.900;10.774;2023-10-19T10:17:36;34.63;;;24.48;;
39502;SDS011;26970;49.900;10.774;2023-10-19T10:22:44;32.28;;;23.90;;
39502;SDS011;26970;49.900;10.774;2023-10-19T10:25:29;30.45;;;23.10;;
39502;SDS011;26970;49.900;10.774;2023-10-19T10:27:55;31.77;;;23.40;;
39502;SDS011;26970;49.900;10.774;2023-10-19T10:30:21;31.58;;;23.73;;
39502;SDS011;26970;49.900;10.774;2023-10-19T10:32:47;33.95;;;22.52;;
39502;SDS011;26970;49.900;10.774;2023-10-19T10:38:02;31.70;;;21.98;;
39502;SDS011;26970;49.900;10.774;2023-10-19T10:40:30;28.80;;;21.67;;
39502;SDS011;26970;49.900;10.774;2023-10-19T10:43:06;28.98;;;22.95;;
39502;SDS011;26970;49.900;10.774;2023-10-19T10:45:32;28.30;;;23.40;;
39502;SDS011;26970;49.900;10.774;2023-10-19T10:47:58;28.90;;;21.50;;
39502;SDS011;26970;49.900;10.774;2023-10-19T10:50:26;33.38;;;23.40;;
39502;SDS011;26970;49.900;10.774;2023-10-19T10:52:53;33.85;;;22.70;;
39502;SDS011;26970;49.900;10.774;2023-10-19T10:55:23;28.73;;;22.92;;
39502;SDS011;26970;49.900;10.774;2023-10-19T10:57:52;28.88;;;22.52;;
39502;SDS011;26970;49.900;10.774;2023-10-19T11:00:19;28.25;;;20.92;;
39502;SDS011;26970;49.900;10.774;2023-10-19T11:02:58;33.35;;;22.13;;
39502;SDS011;26970;49.900;10.774;2023-10-19T11:05:24;30.85;;;22.73;;
39502;SDS011;26970;49.900;10.774;2023-10-19T11:08:06;33.85;;;23.02;;
39502;SDS011;26970;49.900;10.774;2023-10-19T11:13:12;31.02;;;22.23;;
39502;SDS011;26970;49.900;10.774;2023-10-19T11:15:50;26.20;;;20.83;;
39502;SDS011;26970;49.900;10.774;2023-10-19T11:18:27;29.33;;;20.33;;
39502;SDS011;26970;49.900;10.774;2023-10-19T11:21:01;25.80;;;20.38;;
39502;SDS011;26970;49.900;10.774;2023-10-19T11:23:42;30.10;;;21.90;;
39502;SDS011;26970;49.900;10.774;2023-10-19T11:26:12;31.98;;;21.88;;
39502;SDS011;26970;49.900;10.774;2023-10-19T11:28:39;29.92;;;22.45;;
39502;SDS011;26970;49.900;10.774;2023-10-19T11:33:38;30.45;;;22.15;;
39502;SDS011;26970;49.900;10.774;2023-10-19T11:36:06;28.90;;;21.83;;
39502;SDS011;26970;49.900;10.774;2023-10-19T11:38:32;29.75;;;21.45;;
39502;SDS011;26970;49.900;10.774;2023-10-19T11:40:57;28.85;;;21.38;;
39502;SDS011;26970;49.900;10.774;2023-10-19T11:43:23;28.80;;;20.80;;
39502;SDS011;26970;49.900;10.774;2023-10-19T11:45:52;32.70;;;23.05;;
39502;SDS011;26970;49.900;10.774;2023-10-19T11:48:50;32.60;;;21.85;;
39502;SDS011;26970;49.900;10.774;2023-10-19T11:51:16;32.13;;;21.13;;
39502;SDS011;26970;49.900;10.774;2023-10-19T11:53:42;28.17;;;21.50;;
39502;SDS011;26970;49.900;10.774;2023-10-19T11:56:09;28.63;;;21.48;;
39502;SDS011;26970;49.900;10.774;2023-10-19T11:58:37;28.40;;;20.05;;
39502;SDS011;26970;49.900;10.774;2023-10-19T12:01:05;26.65;;;19.50;;
39502;SDS011;26970;49.900;10.774;2023-10-19T12:03:33;27.13;;;21.15;;
39502;SDS011;26970;49.900;10.774;2023-10-19T12:06:08;26.33;;;19.50;;
39502;SDS011;26970;49.900;10.774;2023-10-19T12:08:37;29.40;;;20.38;;
39502;SDS011;26970;49.900;10.774;2023-10-19T12:11:05;29.25;;;20.48;;
39502;SDS011;26970;49.900;10.774;2023-10-19T12:13:40;27.08;;;20.52;;
39502;SDS011;26970;49.900;10.774;2023-10-19T12:16:08;26.83;;;18.92;;
39502;SDS011;26970;49.900;10.774;2023-10-19T12:18:37;26.60;;;18.98;;
39502;SDS011;26970;49.900;10.774;2023-10-19T12:21:17;31.00;;;20.10;;
39502;SDS011;26970;49.900;10.774;2023-10-19T12:23:43;26.00;;;19.60;;
39502;SDS011;26970;49.900;10.774;2023-10-19T12:26:09;28.80;;;19.52;;
39502;SDS011;26970;49.900;10.774;2023-10-19T12:28:40;28.33;;;19.75;;
39502;SDS011;26970;49.900;10.774;2023-10-19T12:31:06;24.52;;;18.75;;
39502;SDS011;26970;49.900;10.774;2023-10-19T12:33:36;23.17;;;17.75;;
39502;SDS011;26970;49.900;10.774;2023-10-19T12:36:03;25.80;;;19.60;;
39502;SDS011;26970;49.900;10.774;2023-10-19T12:38:48;27.52;;;19.02;;
39502;SDS011;26970;49.900;10.774;2023-10-19T12:41:15;23.00;;;17.95;;
39502;SDS011;26970;49.900;10.774;2023-10-19T12:43:42;30.83;;;19.23;;
39502;SDS011;26970;49.900;10.774;2023-10-19T12:46:08;25.17;;;17.92;;
39502;SDS011;26970;49.900;10.774;2023-10-19T12:48:34;22.02;;;16.80;;
39502;SDS011;26970;49.900;10.774;2023-10-19T12:51:00;25.65;;;18.30;;
39502;SDS011;26970;49.900;10.774;2023-10-19T12:53:31;25.10;;;18.15;;
39502;SDS011;26970;49.900;10.774;2023-10-19T12:55:58;25.08;;;19.15;;
39502;SDS011;26970;49.900;10.774;2023-10-19T12:58:24;25.23;;;18.40;;
39502;SDS011;26970;49.900;10.774;2023-10-19T13:00:52;26.17;;;17.83;;
39502;SDS011;26970;49.900;10.774;2023-10-19T13:03:19;22.98;;;18.50;;
39502;SDS011;26970;49.900;10.774;2023-10-19T13:05:46;42.10;;;27.42;;
39502;SDS011;26970;49.900;10.774;2023-10-19T13:08:14;24.80;;;19.30;;
39502;SDS011;26970;49.900;10.774;2023-10-19T13:10:44;24.40;;;18.77;;
39502;SDS011;26970;49.900;10.774;2023-10-19T13:13:12;29.80;;;18.23;;
39502;SDS011;26970;49.900;10.774;2023-10-19T13:15:43;25.52;;;18.08;;
39502;SDS011;26970;49.900;10.774;2023-10-19T13:18:11;26.05;;;18.98;;
39502;SDS011;26970;49.900;10.774;2023-10-19T13:20:52;26.88;;;18.77;;
39502;SDS011;26970;49.900;10.774;2023-10-19T13:23:19;24.23;;;19.45;;
39502;SDS011;26970;49.900;10.774;2023-10-19T13:25:48;26.85;;;19.02;;
39502;SDS011;26970;49.900;10.774;2023-10-19T13:28:16;22.75;;;17.98;;
39502;SDS011;26970;49.900;10.774;2023-10-19T13:30:45;26.30;;;18.23;;
39502;SDS011;26970;49.900;10.774;2023-10-19T13:33:15;23.00;;;17.83;;
39502;SDS011;26970;49.900;10.774;2023-10-19T13:35:42;25.23;;;17.30;;
39502;SDS011;26970;49.900;10.774;2023-10-19T13:38:09;26.58;;;19.05;;
39502;SDS011;26970;49.900;10.774;2023-10-19T13:40:38;26.83;;;18.08;;
39502;SDS011;26970;49.900;10.774;2023-10-19T13:43:04;23.77;;;17.08;;
39502;SDS011;26970;49.900;10.774;2023-10-19T13:45:34;25.48;;;17.55;;
39502;SDS011;26970;49.900;10.774;2023-10-19T13:48:03;24.70;;;18.08;;
39502;SDS011;26970;49.900;10.774;2023-10-19T13:50:30;23.65;;;17.38;;
39502;SDS011;26970;49.900;10.774;2023-10-19T13:52:57;21.77;;;17.15;;
39502;SDS011;26970;49.900;10.774;2023-10-19T13:55:24;22.58;;;16.75;;
39502;SDS011;26970;49.900;10.774;2023-10-19T13:57:50;29.05;;;18.00;;
39502;SDS011;26970;49.900;10.774;2023-10-19T14:00:17;27.08;;;20.17;;
39502;SDS011;26970;49.900;10.774;2023-10-19T14:02:50;23.63;;;18.17;;
39502;SDS011;26970;49.900;10.774;2023-10-19T14:05:16;30.13;;;18.52;;
39502;SDS011;26970;49.900;10.774;2023-10-19T14:07:43;26.52;;;17.70;;
39502;SDS011;26970;49.900;10.774;2023-10-19T14:10:09;25.98;;;19.10;;
39502;SDS011;26970;49.900;10.774;2023-10-19T14:12:39;26.50;;;19.35;;
39502;SDS011;26970;49.900;10.774;2023-10-19T14:15:17;29.75;;;19.40;;
39502;SDS011;26970;49.900;10.774;2023-10-19T14:17:44;23.52;;;19.23;;
39502;SDS011;26970;49.900;10.774;2023-10-19T14:20:11;24.23;;;17.60;;
39502;SDS011;26970;49.900;10.774;2023-10-19T14:22:38;25.75;;;17.15;;
39502;SDS011;26970;49.900;10.774;2023-10-19T14:25:09;23.48;;;17.08;;
39502;SDS011;26970;49.900;10.774;2023-10-19T14:27:44;25.33;;;18.27;;
39502;SDS011;26970;49.900;10.774;2023-10-19T14:30:11;29.38;;;18.30;;
39502;SDS011;26970;49.900;10.774;2023-10-19T14:32:40;29.00;;;19.00;;
39502;SDS011;26970;49.900;10.774;2023-10-19T14:35:07;24.80;;;17.63;;